createdAt,value
2022-09-28T00:19:43.879Z,6.84
2022-09-28T00:49:46.634Z,6.52
2022-09-28T01:19:50.786Z,6.06
2022-09-28T01:49:53.922Z,5.55
2022-09-28T02:19:58.032Z,5.06
2022-09-28T02:50:00.938Z,5.09
2022-09-28T03:20:04.742Z,4.77
2022-09-28T03:50:07.502Z,4.45
2022-09-28T04:20:10.973Z,3.91
2022-09-28T04:50:13.738Z,3.73
2022-09-28T05:20:18.281Z,3.73
2022-09-28T05:50:21.164Z,4.42
2022-09-28T06:20:24.585Z,5.27
2022-09-28T06:50:27.583Z,5.90
2022-09-28T07:20:32.475Z,6.91
2022-09-28T07:50:36.505Z,7.81
2022-09-28T08:20:40.511Z,8.34
2022-09-28T08:50:43.289Z,9.47
2022-09-28T09:20:47.504Z,10.83
2022-09-28T09:50:50.326Z,11.97
2022-09-28T10:20:53.808Z,12.91
2022-09-28T10:50:56.963Z,13.05
2022-09-28T11:21:00.511Z,12.87
2022-09-28T11:51:03.788Z,12.63
2022-09-28T12:21:07.330Z,12.33
2022-09-28T12:51:10.471Z,11.97
2022-09-28T13:21:14.781Z,11.60
2022-09-28T13:51:17.580Z,10.56
2022-09-28T14:21:21.026Z,8.59
2022-09-28T14:51:24.116Z,8.23
2022-09-28T15:21:28.204Z,8.46
2022-09-28T15:51:31.122Z,8.56
2022-09-28T16:21:35.078Z,8.62
2022-09-28T16:51:38.007Z,8.71
2022-09-28T17:21:42.161Z,8.44
2022-09-28T17:51:45.119Z,8.03
2022-09-28T18:21:49.330Z,8.00
2022-09-28T18:51:52.067Z,7.75
2022-09-28T19:21:56.148Z,7.56
2022-09-28T19:52:15.252Z,7.52
2022-09-28T20:22:19.625Z,7.66
2022-09-28T20:52:22.513Z,7.51
2022-09-28T21:22:26.567Z,7.49
2022-09-28T21:52:29.399Z,7.31
2022-09-28T22:22:32.353Z,7.15
2022-09-28T22:52:36.455Z,6.99
2022-09-28T23:22:39.983Z,7.00
2022-09-28T23:52:43.291Z,7.26
